createdAt,value
2019-02-08T00:00:25.391Z,0
2019-02-08T00:01:35.506Z,0
2019-02-08T00:02:45.406Z,0
2019-02-08T00:03:55.267Z,0
2019-02-08T00:05:05.413Z,0
2019-02-08T00:06:15.572Z,0
2019-02-08T00:07:25.428Z,0
2019-02-08T00:08:35.306Z,0
2019-02-08T00:09:44.881Z,0
2019-02-08T00:10:54.765Z,0
2019-02-08T00:12:04.913Z,0
2019-02-08T00:13:15.036Z,0
2019-02-08T00:14:25.196Z,0
2019-02-08T00:15:35.334Z,0
2019-02-08T00:16:45.175Z,0
2019-02-08T00:17:55.304Z,0
2019-02-08T00:19:05.200Z,0
2019-02-08T00:20:15.053Z,0
2019-02-08T00:21:25.245Z,0
2019-02-08T00:22:35.366Z,0
2019-02-08T00:23:45.236Z,0
2019-02-08T00:24:55.352Z,0
2019-02-08T00:26:05.486Z,0
2019-02-08T00:27:15.571Z,0
2019-02-08T00:28:25.664Z,0
2019-02-08T00:29:35.518Z,0
2019-02-08T00:30:45.672Z,0
2019-02-08T00:31:55.838Z,0
2019-02-08T00:33:05.915Z,0
2019-02-08T00:34:15.726Z,0
2019-02-08T00:35:25.567Z,0
2019-02-08T00:36:35.674Z,0
2019-02-08T00:37:45.816Z,0
2019-02-08T00:38:55.389Z,0
2019-02-08T00:40:06.145Z,0
2019-02-08T00:41:16.223Z,0
2019-02-08T00:42:26.279Z,0
2019-02-08T00:43:36.358Z,0
2019-02-08T00:44:46.181Z,0
2019-02-08T00:45:55.498Z,0
2019-02-08T00:47:05.580Z,0
2019-02-08T00:48:15.648Z,0
2019-02-08T00:49:25.736Z,0
2019-02-08T00:50:35.831Z,0
2019-02-08T00:51:45.944Z,0
2019-02-08T00:52:56.023Z,0
2019-02-08T00:54:05.836Z,0
2019-02-08T00:55:15.891Z,0
2019-02-08T00:56:25.973Z,0
2019-02-08T00:57:36.060Z,0
2019-02-08T00:58:45.908Z,0
2019-02-08T00:59:56.019Z,0
2019-02-08T01:01:06.141Z,0
2019-02-08T01:02:16.016Z,0
2019-02-08T01:03:25.846Z,0
2019-02-08T01:04:35.651Z,0
2019-02-08T01:05:45.727Z,0
2019-02-08T01:06:55.805Z,0
2019-02-08T01:08:05.885Z,0
2019-02-08T01:09:15.977Z,0
2019-02-08T01:10:26.438Z,0
2019-02-08T01:11:36.617Z,0
2019-02-08T01:12:46.963Z,0
2019-02-08T01:13:57.400Z,0
2019-02-08T01:15:08.456Z,0
2019-02-08T01:16:19.661Z,0
2019-02-08T01:17:30.593Z,0
2019-02-08T01:18:41.416Z,0
2019-02-08T01:19:51.878Z,0
2019-02-08T01:21:02.188Z,0
2019-02-08T01:22:12.307Z,0
2019-02-08T01:23:22.563Z,0
2019-02-08T01:24:32.613Z,0
2019-02-08T01:25:42.663Z,0
2019-02-08T01:26:52.705Z,0
2019-02-08T01:28:02.787Z,0
2019-02-08T01:29:12.878Z,0
2019-02-08T01:30:22.934Z,0
2019-02-08T01:31:32.982Z,0
2019-02-08T01:32:43.045Z,0
2019-02-08T01:33:53.111Z,0
2019-02-08T01:35:03.644Z,0
2019-02-08T01:36:13.287Z,0
2019-02-08T01:37:23.323Z,0
2019-02-08T01:38:33.360Z,0
2019-02-08T01:39:43.423Z,0
2019-02-08T01:40:53.204Z,0
2019-02-08T01:42:03.043Z,0
2019-02-08T01:43:13.077Z,0
2019-02-08T01:44:23.128Z,0
2019-02-08T01:45:33.201Z,0
2019-02-08T01:46:43.407Z,0
2019-02-08T01:47:53.235Z,0
2019-02-08T01:49:03.284Z,0
2019-02-08T01:50:13.075Z,0
2019-02-08T01:51:23.114Z,0
2019-02-08T01:52:32.667Z,0
2019-02-08T01:53:48.474Z,0
2019-02-08T01:54:58.632Z,0
2019-02-08T01:56:08.730Z,0
2019-02-08T01:57:18.773Z,0
2019-02-08T01:58:28.829Z,0
2019-02-08T01:59:38.886Z,0
2019-02-08T02:00:48.193Z,0
2019-02-08T02:01:57.997Z,0
2019-02-08T02:03:08.548Z,0
2019-02-08T02:04:18.609Z,0
2019-02-08T02:05:28.684Z,0
2019-02-08T02:06:38.785Z,0
2019-02-08T02:07:48.833Z,0
2019-02-08T02:08:58.621Z,0
2019-02-08T02:10:09.677Z,0
2019-02-08T02:11:19.724Z,0
2019-02-08T02:12:29.775Z,0
2019-02-08T02:13:39.315Z,0
2019-02-08T02:14:49.368Z,0
2019-02-08T02:15:59.409Z,0
2019-02-08T02:17:09.312Z,0
2019-02-08T02:18:19.399Z,0
2019-02-08T02:19:29.199Z,0
2019-02-08T02:20:39.009Z,0
2019-02-08T02:21:49.087Z,0
2019-02-08T02:22:59.150Z,0
2019-02-08T02:24:09.223Z,0
2019-02-08T02:25:19.031Z,0
2019-02-08T02:26:28.852Z,0
2019-02-08T02:27:38.685Z,0
2019-02-08T02:28:48.785Z,0
2019-02-08T02:29:58.830Z,0
2019-02-08T02:31:08.654Z,0
2019-02-08T02:32:18.715Z,0
2019-02-08T02:33:28.534Z,0
2019-02-08T02:34:38.592Z,0
2019-02-08T02:35:48.393Z,0
2019-02-08T02:36:58.472Z,0
2019-02-08T02:38:08.930Z,0
2019-02-08T02:39:18.985Z,0
2019-02-08T02:40:28.806Z,0
2019-02-08T02:41:38.866Z,0
2019-02-08T02:42:48.414Z,0
2019-02-08T02:43:58.200Z,0
2019-02-08T02:45:08.306Z,0
2019-02-08T02:46:18.368Z,0
2019-02-08T02:47:28.174Z,0
2019-02-08T02:48:38.239Z,0
2019-02-08T02:49:47.784Z,0
2019-02-08T02:50:57.594Z,0
2019-02-08T02:52:07.653Z,0
2019-02-08T02:53:17.718Z,0
2019-02-08T02:54:27.526Z,0
2019-02-08T02:55:37.586Z,0
2019-02-08T02:56:47.396Z,0
2019-02-08T02:57:57.439Z,0
2019-02-08T02:59:07.497Z,0
2019-02-08T03:00:18.364Z,0
2019-02-08T03:01:28.152Z,0
2019-02-08T03:02:38.196Z,0
2019-02-08T03:34:31.615Z,0
2019-02-08T03:35:41.673Z,0
2019-02-08T03:36:51.459Z,0
2019-02-08T03:38:03.678Z,0
2019-02-08T03:39:13.226Z,0
2019-02-08T03:40:23.309Z,0
2019-02-08T03:41:33.355Z,0
2019-02-08T03:42:43.175Z,0
2019-02-08T03:43:53.245Z,0
2019-02-08T03:45:03.301Z,0
2019-02-08T03:46:13.159Z,0
2019-02-08T03:47:23.323Z,0
2019-02-08T03:48:32.866Z,0
2019-02-08T03:49:42.918Z,0
2019-02-08T03:50:52.446Z,0
2019-02-08T03:52:02.259Z,0
2019-02-08T03:53:11.800Z,0
2019-02-08T03:54:28.383Z,0
2019-02-08T03:55:38.515Z,0
2019-02-08T03:56:48.588Z,0
2019-02-08T03:57:58.404Z,0
2019-02-08T03:59:08.471Z,0
2019-02-08T04:00:18.832Z,0
2019-02-08T04:01:29.052Z,0
2019-02-08T04:02:39.163Z,0
2019-02-08T04:03:48.961Z,0
2019-02-08T04:04:59.058Z,0
2019-02-08T04:06:09.155Z,0
2019-02-08T04:07:19.199Z,0
2019-02-08T04:08:29.264Z,0
2019-02-08T04:09:39.388Z,0
2019-02-08T04:10:49.198Z,0
2019-02-08T04:11:59.237Z,0
2019-02-08T04:13:09.021Z,0
2019-02-08T04:14:19.055Z,0
2019-02-08T04:15:29.192Z,0
2019-02-08T04:16:39.221Z,0
2019-02-08T04:17:49.098Z,0
2019-02-08T04:18:58.624Z,0
2019-02-08T04:20:08.454Z,0
2019-02-08T04:21:18.293Z,0
2019-02-08T04:22:27.802Z,0
2019-02-08T04:23:37.342Z,0
2019-02-08T04:24:47.409Z,0
2019-02-08T04:25:57.471Z,0
2019-02-08T04:27:07.398Z,0
2019-02-08T04:28:17.267Z,0
2019-02-08T04:29:26.795Z,0
2019-02-08T04:30:36.636Z,0
2019-02-08T04:31:47.382Z,0
2019-02-08T04:32:57.484Z,0
2019-02-08T04:34:07.554Z,0
2019-02-08T04:35:17.198Z,0
2019-02-08T04:36:27.271Z,0
2019-02-08T04:37:37.066Z,0
2019-02-08T04:38:47.112Z,0
2019-02-08T04:39:56.900Z,0
2019-02-08T04:41:06.692Z,0
2019-02-08T04:42:16.258Z,0
2019-02-08T04:43:26.307Z,0
2019-02-08T04:44:36.379Z,0
2019-02-08T04:45:46.490Z,0
2019-02-08T04:46:56.542Z,0
2019-02-08T04:48:06.621Z,0
2019-02-08T04:49:16.676Z,0
2019-02-08T04:50:26.742Z,0
2019-02-08T04:51:36.773Z,0
2019-02-08T04:52:46.636Z,0
2019-02-08T04:53:56.423Z,0
2019-02-08T04:55:06.475Z,0
2019-02-08T04:56:16.261Z,0
2019-02-08T04:57:26.295Z,0
2019-02-08T04:58:42.897Z,0
2019-02-08T04:59:52.954Z,0
2019-02-08T05:01:03.047Z,0
2019-02-08T05:02:12.839Z,0
2019-02-08T05:03:22.892Z,0
2019-02-08T05:04:32.701Z,0
2019-02-08T05:05:42.494Z,0
2019-02-08T05:06:52.547Z,0
2019-02-08T05:08:02.399Z,0
2019-02-08T05:09:12.185Z,0
2019-02-08T05:10:22.237Z,0
2019-02-08T05:11:32.298Z,0
2019-02-08T05:12:42.344Z,0
2019-02-08T05:13:52.401Z,0
2019-02-08T05:15:02.232Z,0
2019-02-08T05:16:12.285Z,0
2019-02-08T05:17:22.335Z,0
2019-02-08T05:18:32.400Z,0
2019-02-08T05:19:42.435Z,0
2019-02-08T05:20:52.481Z,0
2019-02-08T05:22:02.543Z,0
2019-02-08T05:23:12.596Z,0
2019-02-08T05:24:22.654Z,0
2019-02-08T05:25:32.713Z,0
2019-02-08T05:26:42.793Z,0
2019-02-08T05:27:54.995Z,0
2019-02-08T05:29:04.880Z,0
2019-02-08T05:30:14.695Z,0
2019-02-08T05:31:24.747Z,0
2019-02-08T05:32:34.804Z,0
2019-02-08T05:33:44.877Z,0
2019-02-08T05:34:54.926Z,0
2019-02-08T05:36:07.539Z,0
2019-02-08T05:37:17.639Z,0
2019-02-08T05:38:27.423Z,0
2019-02-08T05:39:37.457Z,0
2019-02-08T05:41:08.082Z,0
2019-02-08T05:42:18.147Z,0
2019-02-08T05:43:28.209Z,0
2019-02-08T05:44:38.262Z,0
2019-02-08T05:45:48.308Z,0
2019-02-08T05:46:58.361Z,4
2019-02-08T05:48:08.436Z,4
2019-02-08T05:49:18.264Z,0
2019-02-08T05:50:28.070Z,4
2019-02-08T05:51:38.133Z,4
2019-02-08T05:52:47.958Z,4
2019-02-08T05:53:57.770Z,4
2019-02-08T05:55:07.581Z,4
2019-02-08T05:56:17.635Z,4
2019-02-08T05:57:29.023Z,8
2019-02-08T05:58:39.191Z,8
2019-02-08T05:59:49.230Z,12
2019-02-08T06:00:59.290Z,8
2019-02-08T06:02:09.239Z,12
2019-02-08T06:03:19.033Z,16
2019-02-08T06:04:29.098Z,16
2019-02-08T06:05:39.163Z,20
2019-02-08T06:06:48.990Z,24
2019-02-08T06:07:59.039Z,28
2019-02-08T06:09:08.848Z,32
2019-02-08T06:10:18.650Z,40
2019-02-08T06:11:28.531Z,44
2019-02-08T06:12:40.732Z,56
2019-02-08T06:13:50.810Z,60
2019-02-08T06:15:00.600Z,68
2019-02-08T06:16:10.432Z,76
2019-02-08T06:17:20.503Z,84
2019-02-08T06:18:30.327Z,92
2019-02-08T06:19:40.380Z,92
2019-02-08T06:20:50.473Z,92
2019-02-08T06:22:00.576Z,92
2019-02-08T06:23:10.668Z,96
2019-02-08T06:24:20.475Z,104
2019-02-08T06:25:30.602Z,108
2019-02-08T06:26:40.667Z,120
2019-02-08T06:27:50.723Z,128
2019-02-08T06:29:02.165Z,140
2019-02-08T06:30:11.969Z,148
2019-02-08T06:31:22.062Z,160
2019-02-08T06:32:32.094Z,172
2019-02-08T06:33:42.133Z,176
2019-02-08T06:34:51.686Z,192
2019-02-08T06:36:01.737Z,204
2019-02-08T06:37:11.527Z,220
2019-02-08T06:38:21.577Z,232
2019-02-08T06:39:31.612Z,244
2019-02-08T06:40:41.676Z,256
2019-02-08T06:41:51.778Z,272
2019-02-08T06:43:01.597Z,284
2019-02-08T06:44:11.399Z,300
2019-02-08T06:45:20.946Z,316
2019-02-08T06:46:31.008Z,328
2019-02-08T06:47:40.822Z,348
2019-02-08T06:48:50.861Z,368
2019-02-08T06:50:00.667Z,384
2019-02-08T06:51:11.457Z,404
2019-02-08T06:52:21.514Z,424
2019-02-08T06:53:31.568Z,440
2019-02-08T06:54:41.665Z,460
2019-02-08T06:55:56.316Z,484
2019-02-08T06:57:06.373Z,500
2019-02-08T06:58:17.237Z,520
2019-02-08T06:59:27.031Z,540
2019-02-08T07:00:37.085Z,560
2019-02-08T07:01:47.144Z,584
2019-02-08T07:02:56.979Z,612
2019-02-08T07:04:06.855Z,636
2019-02-08T07:05:16.924Z,660
2019-02-08T07:06:26.484Z,684
2019-02-08T07:07:36.578Z,708
2019-02-08T07:08:46.627Z,728
2019-02-08T07:09:56.431Z,744
2019-02-08T07:11:07.230Z,760
2019-02-08T07:12:17.014Z,776
2019-02-08T07:13:26.815Z,792
2019-02-08T07:14:36.867Z,812
2019-02-08T07:15:46.249Z,832
2019-02-08T07:16:56.294Z,856
2019-02-08T07:18:06.364Z,876
2019-02-08T07:19:16.409Z,896
2019-02-08T07:20:25.973Z,920
2019-02-08T07:21:36.023Z,944
2019-02-08T07:22:46.083Z,960
2019-02-08T07:23:56.114Z,980
2019-02-08T07:25:05.671Z,1000
2019-02-08T07:26:15.454Z,1024
2019-02-08T07:27:25.253Z,1048
2019-02-08T07:28:35.318Z,1076
2019-02-08T07:29:45.375Z,1100
2019-02-08T07:30:55.415Z,1128
2019-02-08T07:32:06.078Z,1160
2019-02-08T07:33:16.126Z,1192
2019-02-08T07:34:26.260Z,1224
2019-02-08T07:35:36.076Z,1260
2019-02-08T07:36:46.135Z,1300
2019-02-08T07:37:56.192Z,1340
2019-02-08T07:39:07.899Z,1384
2019-02-08T07:40:17.694Z,1428
2019-02-08T07:41:27.726Z,1472
2019-02-08T07:42:37.795Z,1512
2019-02-08T07:43:47.845Z,1552
2019-02-08T07:44:57.897Z,1592
2019-02-08T07:46:07.696Z,1632
2019-02-08T07:47:17.511Z,1672
2019-02-08T07:48:27.569Z,1708
2019-02-08T07:49:37.355Z,1748
2019-02-08T07:50:47.420Z,1788
2019-02-08T07:51:57.469Z,1824
2019-02-08T07:53:07.509Z,1856
2019-02-08T07:54:17.667Z,1888
2019-02-08T07:55:33.350Z,1920
2019-02-08T07:56:43.410Z,1944
2019-02-08T07:57:53.209Z,1968
2019-02-08T07:59:03.278Z,1996
2019-02-08T08:00:13.945Z,2024
2019-02-08T08:01:23.943Z,2048
2019-02-08T08:02:33.477Z,2076
2019-02-08T08:03:43.554Z,2108
2019-02-08T08:04:53.603Z,2144
2019-02-08T08:06:03.464Z,2180
2019-02-08T08:07:13.535Z,2220
2019-02-08T08:08:23.592Z,2260
2019-02-08T08:09:33.123Z,2304
2019-02-08T08:10:42.913Z,2352
2019-02-08T08:11:52.966Z,2408
2019-02-08T08:13:02.779Z,2468
2019-02-08T08:14:12.331Z,2540
2019-02-08T08:15:22.396Z,2612
2019-02-08T08:16:32.216Z,2708
2019-02-08T08:17:42.290Z,2840
2019-02-08T08:18:52.345Z,2948
2019-02-08T08:20:02.380Z,3004
2019-02-08T08:21:12.454Z,3076
2019-02-08T08:22:22.544Z,3088
2019-02-08T08:23:32.380Z,3140
2019-02-08T08:24:42.459Z,3180
2019-02-08T08:25:52.243Z,3220
2019-02-08T08:27:01.783Z,3224
2019-02-08T08:28:11.832Z,3260
2019-02-08T08:29:21.949Z,3292
2019-02-08T08:30:32.047Z,3336
2019-02-08T08:31:41.861Z,3416
2019-02-08T08:32:51.185Z,3448
2019-02-08T08:34:02.443Z,3444
2019-02-08T08:35:12.512Z,3512
2019-02-08T08:36:22.573Z,3548
2019-02-08T08:37:32.655Z,3640
2019-02-08T08:38:42.485Z,3684
2019-02-08T08:39:52.583Z,3608
2019-02-08T08:41:02.691Z,3688
2019-02-08T08:42:12.492Z,3852
2019-02-08T08:43:22.554Z,3900
2019-02-08T08:44:32.613Z,3892
2019-02-08T08:45:42.685Z,3916
2019-02-08T08:46:53.548Z,3932
2019-02-08T08:48:03.331Z,4000
2019-02-08T08:49:13.179Z,3988
2019-02-08T08:50:22.740Z,4000
2019-02-08T08:51:32.791Z,4160
2019-02-08T08:52:42.592Z,4220
2019-02-08T08:53:52.656Z,4340
2019-02-08T08:55:02.442Z,4500
2019-02-08T08:56:12.507Z,4700
2019-02-08T08:57:22.571Z,4764
2019-02-08T08:58:32.631Z,4556
2019-02-08T08:59:42.678Z,4472
2019-02-08T09:00:52.491Z,4156
2019-02-08T09:02:02.585Z,4296
2019-02-08T09:03:12.144Z,4352
2019-02-08T09:04:22.212Z,4380
2019-02-08T09:05:32.303Z,4248
2019-02-08T09:06:42.375Z,4196
2019-02-08T09:07:52.435Z,4660
2019-02-08T09:09:01.986Z,4692
2019-02-08T09:10:13.149Z,4568
2019-02-08T09:11:23.058Z,4564
2019-02-08T09:12:32.867Z,4360
2019-02-08T09:13:42.933Z,4324
2019-02-08T09:14:52.971Z,4356
2019-02-08T09:16:03.020Z,4680
2019-02-08T09:17:12.823Z,5008
2019-02-08T09:18:22.617Z,5024
2019-02-08T09:19:32.682Z,5072
2019-02-08T09:20:43.908Z,5072
2019-02-08T09:21:53.960Z,5080
2019-02-08T09:23:03.767Z,4816
2019-02-08T09:24:13.831Z,4520
2019-02-08T09:25:23.894Z,3808
2019-02-08T09:26:33.717Z,3240
2019-02-08T09:27:43.004Z,3332
2019-02-08T09:28:53.051Z,3156
2019-02-08T09:30:02.842Z,2952
2019-02-08T09:31:12.890Z,2996
2019-02-08T09:32:23.174Z,2936
2019-02-08T09:33:33.213Z,2848
2019-02-08T09:34:43.263Z,3032
2019-02-08T09:35:53.070Z,3080
2019-02-08T09:37:03.612Z,3260
2019-02-08T09:38:13.405Z,3204
2019-02-08T09:39:23.211Z,3864
2019-02-08T09:40:33.019Z,4984
2019-02-08T09:41:42.830Z,5288
2019-02-08T09:42:52.911Z,5412
2019-02-08T09:44:02.954Z,5472
2019-02-08T09:45:14.649Z,5360
2019-02-08T09:46:24.585Z,5496
2019-02-08T09:47:34.662Z,5476
2019-02-08T09:48:44.735Z,5512
2019-02-08T09:49:54.779Z,5572
2019-02-08T09:51:04.564Z,5644
2019-02-08T09:52:14.636Z,5544
2019-02-08T09:53:24.703Z,5588
2019-02-08T09:54:34.520Z,5536
2019-02-08T09:55:44.580Z,5608
2019-02-08T09:56:54.697Z,5600
2019-02-08T09:58:04.750Z,5676
2019-02-08T09:59:14.815Z,5780
2019-02-08T10:00:25.320Z,5708
2019-02-08T10:01:35.403Z,5308
2019-02-08T10:02:47.002Z,5216
2019-02-08T10:03:56.791Z,5248
2019-02-08T10:05:06.608Z,5268
2019-02-08T10:06:16.692Z,5196
2019-02-08T10:07:26.529Z,5328
2019-02-08T10:08:36.598Z,5328
2019-02-08T10:09:46.126Z,5328
2019-02-08T10:10:56.197Z,5380
2019-02-08T10:12:06.300Z,5592
2019-02-08T10:13:16.133Z,5320
2019-02-08T10:14:26.234Z,4864
2019-02-08T10:15:36.297Z,4440
2019-02-08T10:16:46.099Z,3696
2019-02-08T10:17:56.172Z,4796
2019-02-08T10:19:06.259Z,5572
2019-02-08T10:20:16.105Z,5332
2019-02-08T10:21:26.169Z,4736
2019-02-08T10:22:35.989Z,5136
2019-02-08T10:23:46.079Z,5284
2019-02-08T10:24:56.144Z,5488
2019-02-08T10:26:12.665Z,5680
2019-02-08T10:27:22.477Z,5624
2019-02-08T10:28:32.522Z,5608
2019-02-08T10:29:42.345Z,5580
2019-02-08T10:30:52.431Z,5340
2019-02-08T10:32:02.238Z,5580
2019-02-08T10:33:12.053Z,5488
2019-02-08T10:34:22.107Z,5528
2019-02-08T10:35:32.158Z,5492
2019-02-08T10:36:42.228Z,5616
2019-02-08T10:37:52.338Z,5520
2019-02-08T10:39:02.409Z,5572
2019-02-08T10:40:12.213Z,5648
2019-02-08T10:41:22.283Z,5556
2019-02-08T10:42:38.025Z,5824
2019-02-08T10:43:48.099Z,5744
2019-02-08T10:44:58.172Z,5744
2019-02-08T10:46:07.989Z,5784
2019-02-08T10:47:18.103Z,5840
2019-02-08T10:48:27.962Z,5840
2019-02-08T10:49:38.070Z,5776
2019-02-08T10:50:47.857Z,5936
2019-02-08T10:51:57.911Z,5928
2019-02-08T10:53:07.973Z,5944
2019-02-08T10:54:18.021Z,5980
2019-02-08T10:55:28.086Z,5948
2019-02-08T10:56:38.178Z,5916
2019-02-08T10:57:48.227Z,5956
2019-02-08T10:58:58.049Z,6008
2019-02-08T11:00:08.944Z,6064
2019-02-08T11:01:19.238Z,6076
2019-02-08T11:02:29.061Z,5928
2019-02-08T11:03:39.102Z,5884
2019-02-08T11:04:49.158Z,5800
2019-02-08T11:05:58.969Z,5860
2019-02-08T11:07:08.790Z,5896
2019-02-08T11:08:18.621Z,5788
2019-02-08T11:09:28.708Z,5884
2019-02-08T11:10:38.765Z,5872
2019-02-08T11:11:48.587Z,2924
2019-02-08T11:12:58.693Z,4660
2019-02-08T11:14:09.760Z,6068
2019-02-08T11:15:19.858Z,6092
2019-02-08T11:16:29.926Z,6116
2019-02-08T11:17:39.996Z,6140
2019-02-08T11:18:50.061Z,6224
2019-02-08T11:20:00.204Z,6136
2019-02-08T11:21:10.257Z,6052
2019-02-08T11:22:20.308Z,6088
2019-02-08T11:23:30.373Z,6020
2019-02-08T11:24:40.424Z,6044
2019-02-08T11:25:50.495Z,5996
2019-02-08T11:27:00.550Z,6024
2019-02-08T11:28:10.357Z,6148
2019-02-08T11:29:20.432Z,6228
2019-02-08T11:30:30.552Z,6228
2019-02-08T11:31:40.590Z,6168
2019-02-08T11:32:50.976Z,6180
2019-02-08T11:34:01.080Z,6180
2019-02-08T11:35:11.156Z,6288
2019-02-08T11:36:20.982Z,6280
2019-02-08T11:37:31.060Z,6248
2019-02-08T11:38:41.118Z,6248
2019-02-08T11:39:51.203Z,6264
2019-02-08T11:41:00.767Z,6264
2019-02-08T11:42:10.626Z,6144
2019-02-08T11:43:20.445Z,6132
2019-02-08T11:44:30.293Z,6100
2019-02-08T11:45:40.357Z,5972
2019-02-08T11:46:50.451Z,6076
2019-02-08T11:48:00.578Z,6180
2019-02-08T11:49:10.391Z,6256
2019-02-08T11:50:20.192Z,6248
2019-02-08T11:51:30.247Z,6240
2019-02-08T11:52:40.068Z,6252
2019-02-08T11:53:50.143Z,6216
2019-02-08T11:55:00.263Z,6220
2019-02-08T11:56:10.318Z,6244
2019-02-08T11:57:20.374Z,6252
2019-02-08T11:58:30.425Z,6264
2019-02-08T11:59:40.524Z,6200
2019-02-08T12:00:50.580Z,6212
2019-02-08T12:02:00.375Z,6196
2019-02-08T12:03:11.919Z,6184
2019-02-08T12:04:21.460Z,6260
2019-02-08T12:05:31.257Z,6316
2019-02-08T12:06:41.057Z,6296
2019-02-08T12:07:51.115Z,6248
2019-02-08T12:09:01.180Z,6172
2019-02-08T12:10:11.284Z,6216
2019-02-08T12:11:21.410Z,6292
2019-02-08T12:12:31.456Z,6296
2019-02-08T12:13:41.517Z,6300
2019-02-08T12:14:51.341Z,6296
2019-02-08T12:16:01.656Z,6268
2019-02-08T12:17:11.748Z,6320
2019-02-08T12:18:23.535Z,6332
2019-02-08T12:19:33.627Z,6328
2019-02-08T12:20:43.708Z,6332
2019-02-08T12:21:53.778Z,6248
2019-02-08T12:23:03.893Z,6144
2019-02-08T12:24:13.943Z,6144
2019-02-08T12:25:24.004Z,6192
2019-02-08T12:26:40.337Z,6324
2019-02-08T12:27:50.157Z,6336
2019-02-08T12:29:00.011Z,6340
2019-02-08T12:30:10.077Z,6344
2019-02-08T12:31:21.684Z,6404
2019-02-08T12:32:31.501Z,6412
2019-02-08T12:33:41.547Z,6348
2019-02-08T12:34:53.346Z,6372
2019-02-08T12:36:03.559Z,6420
2019-02-08T12:37:13.620Z,6348
2019-02-08T12:38:23.424Z,6312
2019-02-08T12:39:33.512Z,6264
2019-02-08T12:40:43.649Z,6260
2019-02-08T12:41:53.470Z,6296
2019-02-08T12:43:03.534Z,6396
2019-02-08T12:44:13.112Z,5928
2019-02-08T12:45:24.463Z,2068
2019-02-08T12:46:34.537Z,6100
2019-02-08T12:47:44.618Z,6228
2019-02-08T12:48:54.671Z,6196
2019-02-08T12:50:04.738Z,6164
2019-02-08T12:51:14.538Z,6132
2019-02-08T12:52:24.358Z,6064
2019-02-08T12:53:34.431Z,5960
2019-02-08T12:54:44.510Z,5900
2019-02-08T12:55:54.320Z,5948
2019-02-08T12:57:04.398Z,5932
2019-02-08T12:58:14.454Z,5904
2019-02-08T12:59:24.521Z,5660
2019-02-08T13:00:34.604Z,5860
2019-02-08T13:01:45.217Z,5832
2019-02-08T13:02:55.006Z,5788
2019-02-08T13:04:05.945Z,5740
2019-02-08T13:05:16.020Z,5732
2019-02-08T13:06:25.821Z,5604
2019-02-08T13:07:35.617Z,5268
2019-02-08T13:08:45.700Z,5308
2019-02-08T13:09:55.812Z,5528
2019-02-08T13:11:05.874Z,5504
2019-02-08T13:12:16.665Z,5516
2019-02-08T13:13:26.722Z,5424
2019-02-08T13:14:36.782Z,5340
2019-02-08T13:15:46.645Z,5272
2019-02-08T13:16:56.699Z,5196
2019-02-08T13:18:06.823Z,5096
2019-02-08T13:19:16.910Z,5112
2019-02-08T13:20:26.776Z,5136
2019-02-08T13:21:36.671Z,5152
2019-02-08T13:22:46.474Z,5068
2019-02-08T13:23:56.933Z,4816
2019-02-08T13:25:07.026Z,3536
2019-02-08T13:26:16.850Z,4408
2019-02-08T13:27:26.658Z,4952
2019-02-08T13:28:36.712Z,4804
2019-02-08T13:29:46.253Z,4984
2019-02-08T13:30:56.062Z,4912
2019-02-08T13:32:05.848Z,4744
2019-02-08T13:33:16.539Z,3840
2019-02-08T13:34:26.697Z,4028
2019-02-08T13:35:36.764Z,2024
2019-02-08T13:36:46.827Z,4768
2019-02-08T13:37:56.911Z,4832
2019-02-08T13:39:06.749Z,3448
2019-02-08T13:40:16.821Z,2128
2019-02-08T13:41:26.862Z,4328
2019-02-08T13:42:36.913Z,4612
2019-02-08T13:43:46.987Z,4548
2019-02-08T13:44:57.082Z,4568
2019-02-08T13:46:07.131Z,4304
2019-02-08T13:47:17.999Z,4540
2019-02-08T13:48:27.851Z,4492
2019-02-08T13:49:37.905Z,3320
2019-02-08T13:50:47.471Z,1796
2019-02-08T13:51:57.524Z,4260
2019-02-08T13:53:08.474Z,4292
2019-02-08T13:54:18.532Z,4292
2019-02-08T13:55:28.081Z,4212
2019-02-08T13:56:38.140Z,4148
2019-02-08T13:57:48.246Z,4168
2019-02-08T13:58:58.064Z,4136
2019-02-08T14:00:07.764Z,4112
2019-02-08T14:01:17.852Z,4084
2019-02-08T14:02:28.063Z,3960
2019-02-08T14:03:38.121Z,3380
2019-02-08T14:04:47.957Z,3416
2019-02-08T14:05:58.014Z,3888
2019-02-08T14:07:08.086Z,3224
2019-02-08T14:08:18.166Z,3900
2019-02-08T14:09:29.840Z,3840
2019-02-08T14:10:39.927Z,3800
2019-02-08T14:11:50.049Z,3692
2019-02-08T14:13:00.119Z,3652
2019-02-08T14:14:09.918Z,3704
2019-02-08T14:15:21.149Z,3084
2019-02-08T14:16:31.346Z,1588
2019-02-08T14:17:40.701Z,1532
2019-02-08T14:18:50.785Z,2576
2019-02-08T14:20:00.870Z,3488
2019-02-08T14:21:10.971Z,3492
2019-02-08T14:22:21.033Z,3456
2019-02-08T14:23:32.355Z,3404
2019-02-08T14:24:42.172Z,3356
2019-02-08T14:25:51.991Z,3352
2019-02-08T14:27:08.297Z,3308
2019-02-08T14:28:18.686Z,3196
2019-02-08T14:29:28.744Z,3140
2019-02-08T14:30:38.836Z,3076
2019-02-08T14:31:53.040Z,2964
2019-02-08T14:33:03.249Z,2968
2019-02-08T14:34:13.285Z,2972
2019-02-08T14:35:23.572Z,2948
2019-02-08T14:36:33.795Z,2964
2019-02-08T14:37:43.349Z,2948
2019-02-08T14:38:53.143Z,2932
2019-02-08T14:40:03.214Z,2916
2019-02-08T14:41:13.040Z,2848
2019-02-08T14:42:23.099Z,2820
2019-02-08T14:43:33.153Z,2732
2019-02-08T14:44:43.287Z,2708
2019-02-08T14:45:53.123Z,2660
2019-02-08T14:47:03.039Z,2612
2019-02-08T14:48:13.084Z,2556
2019-02-08T14:49:23.167Z,2516
2019-02-08T14:50:33.246Z,2468
2019-02-08T14:51:43.077Z,2432
2019-02-08T14:52:53.193Z,2392
2019-02-08T14:54:03.252Z,2324
2019-02-08T14:55:13.758Z,2248
2019-02-08T14:56:23.572Z,2212
2019-02-08T14:57:33.665Z,2176
2019-02-08T14:58:43.530Z,2132
2019-02-08T14:59:53.067Z,2092
2019-02-08T15:01:03.126Z,2048
2019-02-08T15:02:13.009Z,1980
2019-02-08T15:03:23.157Z,1936
2019-02-08T15:04:33.245Z,1872
2019-02-08T15:05:43.390Z,1824
2019-02-08T15:06:53.504Z,1788
2019-02-08T15:08:05.129Z,1740
2019-02-08T15:09:15.218Z,1700
2019-02-08T15:10:25.353Z,1648
2019-02-08T15:11:35.218Z,1572
2019-02-08T15:12:45.321Z,1512
2019-02-08T15:13:55.403Z,1460
2019-02-08T15:15:05.496Z,1384
2019-02-08T15:16:15.621Z,1324
2019-02-08T15:17:26.887Z,1276
2019-02-08T15:18:36.999Z,1232
2019-02-08T15:19:46.824Z,1184
2019-02-08T15:20:56.921Z,1140
2019-02-08T15:22:06.992Z,1096
2019-02-08T15:23:16.791Z,1060
2019-02-08T15:24:26.950Z,1032
2019-02-08T15:25:37.045Z,984
2019-02-08T15:26:47.738Z,928
2019-02-08T15:27:57.869Z,860
2019-02-08T15:29:07.691Z,820
2019-02-08T15:30:17.754Z,764
2019-02-08T15:31:27.839Z,720
2019-02-08T15:32:39.574Z,692
2019-02-08T15:33:49.736Z,648
2019-02-08T15:34:59.817Z,612
2019-02-08T15:36:09.894Z,572
2019-02-08T15:37:19.979Z,536
2019-02-08T15:38:29.632Z,504
2019-02-08T15:39:39.815Z,476
2019-02-08T15:40:49.932Z,444
2019-02-08T15:41:59.745Z,416
2019-02-08T15:43:09.817Z,392
2019-02-08T15:44:19.659Z,368
2019-02-08T15:45:29.451Z,344
2019-02-08T15:46:39.686Z,316
2019-02-08T15:47:50.332Z,296
2019-02-08T15:49:00.824Z,276
2019-02-08T15:50:10.918Z,256
2019-02-08T15:51:20.983Z,232
2019-02-08T15:52:31.055Z,216
2019-02-08T15:53:40.845Z,196
2019-02-08T15:54:50.664Z,180
2019-02-08T15:56:01.292Z,164
2019-02-08T15:57:11.492Z,148
2019-02-08T15:58:21.598Z,132
2019-02-08T15:59:31.712Z,120
2019-02-08T16:00:41.755Z,104
2019-02-08T16:01:52.523Z,96
2019-02-08T16:03:02.104Z,84
2019-02-08T16:04:12.211Z,76
2019-02-08T16:05:22.291Z,64
2019-02-08T16:06:32.377Z,60
2019-02-08T16:07:42.433Z,52
2019-02-08T16:08:52.503Z,44
2019-02-08T16:10:04.953Z,36
2019-02-08T16:11:15.061Z,32
2019-02-08T16:12:25.185Z,24
2019-02-08T16:13:35.285Z,20
2019-02-08T16:14:45.406Z,20
2019-02-08T16:15:55.210Z,16
2019-02-08T16:17:05.982Z,12
2019-02-08T16:18:15.795Z,12
2019-02-08T16:19:25.849Z,8
2019-02-08T16:20:35.925Z,8
2019-02-08T16:21:46.056Z,8
2019-02-08T16:22:56.135Z,4
2019-02-08T16:24:06.202Z,8
2019-02-08T16:25:16.278Z,4
2019-02-08T16:26:26.359Z,4
2019-02-08T16:27:42.250Z,0
2019-02-08T16:28:52.314Z,4
2019-02-08T16:30:02.405Z,4
2019-02-08T16:31:12.484Z,0
2019-02-08T16:32:22.619Z,0
2019-02-08T16:33:32.725Z,0
2019-02-08T16:34:42.550Z,0
2019-02-08T16:35:52.360Z,0
2019-02-08T16:37:10.158Z,0
2019-02-08T16:38:19.981Z,0
2019-02-08T16:39:30.065Z,0
2019-02-08T16:40:40.143Z,0
2019-02-08T16:41:49.971Z,0
2019-02-08T16:43:00.613Z,0
2019-02-08T16:44:10.670Z,0
2019-02-08T16:45:20.748Z,0
2019-02-08T16:46:30.581Z,0